Terminal Aerodrome Forecast
Issued by NWS Cleveland, OH

Home | Current Version | Previous Version | Text Only | Print | Product List | Glossary Off
Versions: 1 2 3 4 5 6 7 8 9 10 11 12 13 14 15 16 17 18 19

000
FTUS41 KCLE 161456 AAA
TAFCLE
TAF AMD
KCLE 161456Z 1615/1718 32010KT P6SM SCT028 BKN035
     FM161700 32010KT P6SM BKN045
     FM170200 19004KT P6SM SCT060
     FM171400 21010KT P6SM SKC=

USA.gov is the U.S. government's official web portal to all federal, state and local government web resources and services.